createdAt,value
2017-03-25T00:00:12.031Z,0
2017-03-25T00:00:52.730Z,0
2017-03-25T00:01:33.423Z,0
2017-03-25T00:02:14.065Z,0
2017-03-25T00:02:54.717Z,0
2017-03-25T00:03:35.377Z,0
2017-03-25T00:04:16.033Z,0
2017-03-25T00:04:56.672Z,0
2017-03-25T00:05:37.341Z,0
2017-03-25T00:06:17.920Z,0
2017-03-25T00:06:58.543Z,0
2017-03-25T00:07:39.179Z,0
2017-03-25T00:08:19.756Z,0
2017-03-25T00:09:00.413Z,0
2017-03-25T00:09:41.052Z,0
2017-03-25T00:10:21.614Z,0
2017-03-25T00:11:02.234Z,0
2017-03-25T00:11:42.905Z,0
2017-03-25T00:12:23.549Z,0
2017-03-25T00:13:04.198Z,0
2017-03-25T00:13:44.863Z,0
2017-03-25T00:14:25.515Z,0
2017-03-25T00:15:06.160Z,0
2017-03-25T00:15:46.824Z,0
2017-03-25T00:16:27.475Z,0
2017-03-25T00:17:09.143Z,0
2017-03-25T00:17:50.825Z,0
2017-03-25T00:18:31.473Z,0
2017-03-25T00:19:12.132Z,0
2017-03-25T00:19:52.779Z,0
2017-03-25T00:20:33.433Z,0
2017-03-25T00:21:14.093Z,0
2017-03-25T00:21:54.745Z,0
2017-03-25T00:22:35.413Z,0
2017-03-25T00:23:16.007Z,0
2017-03-25T00:23:56.660Z,0
2017-03-25T00:24:37.309Z,0
2017-03-25T00:25:19.001Z,0
2017-03-25T00:26:01.688Z,0
2017-03-25T00:26:42.439Z,0
2017-03-25T00:27:23.156Z,0
2017-03-25T00:28:03.890Z,0
2017-03-25T00:28:44.466Z,0
2017-03-25T00:29:25.151Z,0
2017-03-25T00:30:05.859Z,0
2017-03-25T00:30:46.513Z,0
2017-03-25T00:31:27.099Z,0
2017-03-25T00:32:07.781Z,0
2017-03-25T00:32:48.459Z,0
2017-03-25T00:33:29.118Z,0
2017-03-25T00:34:09.677Z,0
2017-03-25T00:34:50.375Z,0
2017-03-25T00:35:31.076Z,0
2017-03-25T00:36:11.735Z,0
2017-03-25T00:36:52.704Z,0
2017-03-25T00:37:33.386Z,0
2017-03-25T00:38:13.996Z,0
2017-03-25T00:38:54.650Z,0
2017-03-25T00:39:35.226Z,0
2017-03-25T00:40:15.915Z,0
2017-03-25T00:40:57.634Z,0
2017-03-25T00:41:38.286Z,0
2017-03-25T00:42:19.965Z,0
2017-03-25T00:43:00.684Z,0
2017-03-25T00:43:41.373Z,0
2017-03-25T00:44:22.026Z,0
2017-03-25T00:45:02.596Z,0
2017-03-25T00:45:43.168Z,0
2017-03-25T00:46:23.788Z,0
2017-03-25T00:47:04.536Z,0
2017-03-25T00:47:45.100Z,0
2017-03-25T00:48:25.789Z,0
2017-03-25T00:49:06.379Z,0
2017-03-25T00:49:47.041Z,0
2017-03-25T00:50:27.635Z,0
2017-03-25T00:51:08.301Z,0
2017-03-25T00:51:48.896Z,0
2017-03-25T00:52:29.548Z,0
2017-03-25T00:53:10.139Z,0
2017-03-25T00:53:51.878Z,0
2017-03-25T00:54:32.636Z,0
2017-03-25T00:55:13.295Z,0
2017-03-25T00:55:54.052Z,0
2017-03-25T00:56:34.806Z,0
2017-03-25T00:57:15.447Z,0
2017-03-25T00:57:57.127Z,0
2017-03-25T00:58:37.889Z,0
2017-03-25T00:59:18.466Z,0
2017-03-25T01:00:00.211Z,0
2017-03-25T01:00:40.867Z,0
2017-03-25T01:01:21.602Z,0
2017-03-25T01:02:02.391Z,0
2017-03-25T01:02:42.981Z,0
2017-03-25T01:03:23.637Z,0
2017-03-25T01:04:04.339Z,0
2017-03-25T01:04:46.020Z,0
2017-03-25T01:05:26.586Z,0
2017-03-25T01:06:07.338Z,0
2017-03-25T01:06:47.980Z,0
2017-03-25T01:07:28.663Z,0
2017-03-25T01:08:10.314Z,0
2017-03-25T01:08:51.974Z,0
2017-03-25T01:09:32.641Z,0
2017-03-25T01:10:13.207Z,0
2017-03-25T01:10:53.850Z,0
2017-03-25T01:11:35.513Z,0
2017-03-25T01:12:17.184Z,0
2017-03-25T01:12:57.750Z,0
2017-03-25T01:13:38.385Z,0
2017-03-25T01:14:19.964Z,0
2017-03-25T01:15:00.631Z,0
2017-03-25T01:15:41.196Z,0
2017-03-25T01:16:21.779Z,0
2017-03-25T01:17:02.368Z,0
2017-03-25T01:17:43.029Z,0
2017-03-25T01:18:23.677Z,0
2017-03-25T01:19:04.366Z,0
2017-03-25T01:19:44.990Z,0
2017-03-25T01:20:26.046Z,0
2017-03-25T01:21:06.727Z,0
2017-03-25T01:21:47.274Z,0
2017-03-25T01:22:27.936Z,0
2017-03-25T01:23:08.557Z,0
2017-03-25T01:23:49.148Z,0
2017-03-25T01:24:29.757Z,0
2017-03-25T01:25:10.411Z,0
2017-03-25T01:25:50.986Z,0
2017-03-25T01:26:31.611Z,0
2017-03-25T01:27:12.269Z,0
2017-03-25T01:27:52.816Z,0
2017-03-25T01:28:33.427Z,0
2017-03-25T01:29:14.018Z,0
2017-03-25T01:29:54.698Z,0
2017-03-25T01:30:35.264Z,0
2017-03-25T01:31:15.835Z,0
2017-03-25T01:31:56.426Z,0
2017-03-25T01:32:37.085Z,0
2017-03-25T01:33:17.731Z,0
2017-03-25T01:33:58.388Z,0
2017-03-25T01:34:39.039Z,0
2017-03-25T01:35:19.689Z,0
2017-03-25T01:36:00.346Z,0
2017-03-25T01:36:41.001Z,0
2017-03-25T01:37:21.658Z,0
2017-03-25T01:38:02.333Z,0
2017-03-25T01:38:42.960Z,0
2017-03-25T01:39:23.621Z,0
2017-03-25T01:40:04.273Z,0
2017-03-25T01:40:44.924Z,0
2017-03-25T01:41:25.524Z,0
2017-03-25T01:42:06.180Z,0
2017-03-25T01:43:01.684Z,0
2017-03-25T01:43:42.285Z,0
2017-03-25T01:44:23.855Z,0
2017-03-25T01:45:04.414Z,0
2017-03-25T01:45:45.028Z,0
2017-03-25T01:46:25.602Z,0
2017-03-25T01:47:06.274Z,0
2017-03-25T01:47:46.916Z,0
2017-03-25T01:48:27.570Z,0
2017-03-25T01:49:08.221Z,0
2017-03-25T01:49:48.872Z,0
2017-03-25T01:50:29.524Z,0
2017-03-25T01:51:10.193Z,0
2017-03-25T01:51:50.759Z,0
2017-03-25T01:52:31.326Z,0
2017-03-25T01:53:11.930Z,0
2017-03-25T01:53:52.587Z,0
2017-03-25T01:54:33.170Z,0
2017-03-25T01:55:13.738Z,0
2017-03-25T01:55:54.310Z,0
2017-03-25T01:56:34.888Z,0
2017-03-25T01:57:15.449Z,0
2017-03-25T01:57:56.046Z,0
2017-03-25T01:58:36.643Z,0
2017-03-25T01:59:17.301Z,0
2017-03-25T01:59:57.852Z,0
2017-03-25T02:00:38.471Z,0
2017-03-25T02:01:19.053Z,0
2017-03-25T02:01:59.705Z,0
2017-03-25T02:02:40.355Z,0
2017-03-25T02:03:21.020Z,0
2017-03-25T02:04:01.688Z,0
2017-03-25T02:04:42.323Z,0
2017-03-25T02:05:22.969Z,0
2017-03-25T02:06:03.626Z,0
2017-03-25T02:06:44.287Z,0
2017-03-25T02:07:24.930Z,0
2017-03-25T02:08:05.582Z,0
2017-03-25T02:08:46.273Z,0
2017-03-25T02:09:26.886Z,0
2017-03-25T02:10:07.543Z,0
2017-03-25T02:10:48.193Z,0
2017-03-25T02:11:28.847Z,0
2017-03-25T02:12:09.420Z,0
2017-03-25T02:12:49.999Z,0
2017-03-25T02:13:30.592Z,0
2017-03-25T02:14:12.176Z,0
2017-03-25T02:14:52.761Z,0
2017-03-25T02:15:33.442Z,0
2017-03-25T02:16:14.029Z,0
2017-03-25T02:16:54.683Z,0
2017-03-25T02:17:35.345Z,0
2017-03-25T02:18:16.000Z,0
2017-03-25T02:18:56.644Z,0
2017-03-25T02:19:37.303Z,0
2017-03-25T02:20:17.960Z,0
2017-03-25T02:20:58.606Z,0
2017-03-25T02:21:39.256Z,0
2017-03-25T02:22:19.908Z,0
2017-03-25T02:23:02.521Z,0
2017-03-25T02:23:43.188Z,0
2017-03-25T02:24:35.715Z,0
2017-03-25T02:25:21.274Z,0
2017-03-25T02:26:17.797Z,0
2017-03-25T02:27:14.188Z,0
2017-03-25T02:27:54.883Z,0
2017-03-25T02:28:46.287Z,0
2017-03-25T02:33:13.335Z,0
2017-03-25T02:33:53.988Z,0
2017-03-25T02:34:34.643Z,0
2017-03-25T02:35:15.301Z,0
2017-03-25T02:35:55.967Z,0
2017-03-25T02:36:36.594Z,0
2017-03-25T02:37:18.182Z,0
2017-03-25T02:37:58.841Z,0
2017-03-25T02:38:41.424Z,0
2017-03-25T02:39:22.093Z,0
2017-03-25T02:40:02.738Z,0
2017-03-25T02:40:43.391Z,0
2017-03-25T02:41:28.959Z,0
2017-03-25T02:42:09.603Z,0
2017-03-25T02:52:19.829Z,0
2017-03-25T02:53:02.524Z,0
2017-03-25T02:53:43.139Z,0
2017-03-25T02:54:23.765Z,0
2017-03-25T02:55:04.461Z,0
2017-03-25T02:55:45.026Z,0
2017-03-25T02:56:37.617Z,0
2017-03-25T02:58:51.011Z,0
2017-03-25T02:59:31.624Z,0
2017-03-25T03:00:12.185Z,0
2017-03-25T03:00:54.824Z,0
2017-03-25T03:01:35.512Z,0
2017-03-25T03:02:16.180Z,0
2017-03-25T03:02:56.835Z,0
2017-03-25T03:03:37.486Z,0
2017-03-25T03:04:18.137Z,0
2017-03-25T03:04:58.790Z,0
2017-03-25T03:05:41.445Z,0
2017-03-25T03:06:23.068Z,0
2017-03-25T03:07:03.620Z,0
2017-03-25T03:07:44.220Z,0
2017-03-25T03:08:24.884Z,0
2017-03-25T03:09:05.527Z,0
2017-03-25T03:09:47.098Z,0
2017-03-25T03:10:28.805Z,0
2017-03-25T03:11:09.442Z,0
2017-03-25T03:11:50.103Z,0
2017-03-25T03:12:31.709Z,0
2017-03-25T03:13:12.359Z,0
2017-03-25T03:13:52.926Z,0
2017-03-25T03:14:34.509Z,0
2017-03-25T03:15:17.096Z,0
2017-03-25T03:15:57.736Z,0
2017-03-25T03:16:38.309Z,0
2017-03-25T03:17:20.949Z,0
2017-03-25T03:18:01.536Z,0
2017-03-25T03:18:42.189Z,0
2017-03-25T03:19:22.760Z,0
2017-03-25T03:20:03.348Z,0
2017-03-25T03:20:44.958Z,0
2017-03-25T03:21:25.621Z,0
2017-03-25T03:22:06.225Z,0
2017-03-25T03:22:46.908Z,0
2017-03-25T03:23:27.480Z,0
2017-03-25T03:24:08.167Z,0
2017-03-25T03:24:48.778Z,0
2017-03-25T03:25:29.437Z,0
2017-03-25T03:26:10.090Z,0
2017-03-25T03:26:50.739Z,0
2017-03-25T03:27:31.284Z,0
2017-03-25T03:28:11.917Z,0
2017-03-25T03:28:52.616Z,0
2017-03-25T03:29:33.258Z,0
2017-03-25T03:30:13.823Z,0
2017-03-25T03:30:54.447Z,0
2017-03-25T03:31:34.998Z,0
2017-03-25T03:32:15.669Z,0
2017-03-25T03:32:56.229Z,0
2017-03-25T03:33:36.862Z,0
2017-03-25T03:34:17.513Z,0
2017-03-25T03:34:58.091Z,0
2017-03-25T03:35:38.715Z,0
2017-03-25T03:36:20.291Z,0
2017-03-25T03:37:00.841Z,0
2017-03-25T03:37:41.491Z,0
2017-03-25T03:38:22.153Z,0
2017-03-25T03:39:02.800Z,0
2017-03-25T03:39:43.474Z,0
2017-03-25T03:40:24.106Z,0
2017-03-25T03:41:05.157Z,0
2017-03-25T03:41:45.739Z,0
2017-03-25T03:42:27.353Z,0
2017-03-25T03:43:07.946Z,0
2017-03-25T03:43:48.604Z,0
2017-03-25T03:44:29.161Z,0
2017-03-25T03:45:09.762Z,0
2017-03-25T03:45:50.362Z,0
2017-03-25T03:46:31.005Z,0
2017-03-25T03:47:11.657Z,0
2017-03-25T03:47:52.311Z,0
2017-03-25T03:48:32.882Z,0
2017-03-25T03:49:13.513Z,0
2017-03-25T03:49:54.174Z,0
2017-03-25T03:50:34.817Z,0
2017-03-25T03:51:15.473Z,0
2017-03-25T03:51:56.152Z,0
2017-03-25T03:52:36.782Z,0
2017-03-25T03:53:17.430Z,0
2017-03-25T03:53:58.084Z,0
2017-03-25T03:54:38.735Z,0
2017-03-25T03:55:19.396Z,0
2017-03-25T03:56:00.043Z,0
2017-03-25T03:56:40.744Z,0
2017-03-25T03:57:21.275Z,0
2017-03-25T03:58:01.916Z,0
2017-03-25T03:58:42.542Z,0
2017-03-25T03:59:23.203Z,0
2017-03-25T04:00:03.791Z,0
2017-03-25T04:00:44.467Z,0
2017-03-25T04:01:25.068Z,0
2017-03-25T04:02:05.717Z,0
2017-03-25T04:02:46.285Z,0
2017-03-25T04:03:26.919Z,0
2017-03-25T04:04:07.572Z,0
2017-03-25T04:04:48.155Z,0
2017-03-25T04:05:28.774Z,0
2017-03-25T04:06:09.467Z,0
2017-03-25T04:06:50.045Z,0
2017-03-25T04:07:30.623Z,0
2017-03-25T04:08:11.274Z,0
2017-03-25T04:08:51.839Z,0
2017-03-25T04:09:32.476Z,0
2017-03-25T04:10:13.131Z,0
2017-03-25T04:10:53.709Z,0
2017-03-25T04:11:34.349Z,0
2017-03-25T04:12:14.991Z,0
2017-03-25T04:12:55.639Z,0
2017-03-25T04:13:36.292Z,0
2017-03-25T04:14:16.946Z,0
2017-03-25T04:14:57.606Z,0
2017-03-25T04:15:38.254Z,0
2017-03-25T04:16:18.909Z,0
2017-03-25T04:16:59.660Z,0
2017-03-25T04:17:40.320Z,0
2017-03-25T04:18:20.970Z,0
2017-03-25T04:19:01.670Z,0
2017-03-25T04:19:42.280Z,0
2017-03-25T04:20:22.935Z,0
2017-03-25T04:21:03.582Z,0
2017-03-25T04:21:44.230Z,0
2017-03-25T04:22:24.888Z,0
2017-03-25T04:23:05.577Z,0
2017-03-25T04:23:46.191Z,0
2017-03-25T04:24:26.844Z,0
2017-03-25T04:25:07.507Z,0
2017-03-25T04:25:48.148Z,0
2017-03-25T04:26:28.801Z,0
2017-03-25T04:27:09.356Z,0
2017-03-25T04:27:49.967Z,0
2017-03-25T04:28:30.543Z,0
2017-03-25T04:29:11.206Z,0
2017-03-25T04:29:51.783Z,0
2017-03-25T04:30:32.410Z,0
2017-03-25T04:31:13.074Z,0
2017-03-25T04:31:53.723Z,0
2017-03-25T04:32:34.292Z,0
2017-03-25T04:33:14.912Z,0
2017-03-25T04:33:55.578Z,0
2017-03-25T04:34:36.133Z,0
2017-03-25T04:35:16.826Z,0
2017-03-25T04:35:57.434Z,0
2017-03-25T04:36:37.987Z,0
2017-03-25T04:37:18.636Z,0
2017-03-25T04:37:59.292Z,0
2017-03-25T04:38:39.859Z,0
2017-03-25T04:39:20.499Z,0
2017-03-25T04:40:01.145Z,0
2017-03-25T04:40:41.720Z,0
2017-03-25T04:41:22.358Z,0
2017-03-25T04:42:03.000Z,0
2017-03-25T04:42:43.653Z,0
2017-03-25T04:43:24.297Z,0
2017-03-25T04:44:04.953Z,0
2017-03-25T04:44:45.612Z,0
2017-03-25T04:45:26.265Z,0
2017-03-25T04:46:06.918Z,0
2017-03-25T04:46:47.571Z,0
2017-03-25T04:47:28.225Z,0
2017-03-25T04:48:08.877Z,0
2017-03-25T04:48:49.532Z,0
2017-03-25T04:49:30.183Z,0
2017-03-25T04:50:10.845Z,4
2017-03-25T04:50:51.487Z,4
2017-03-25T04:51:32.141Z,4
2017-03-25T04:52:12.706Z,4
2017-03-25T04:52:53.310Z,4
2017-03-25T04:53:33.898Z,4
2017-03-25T04:54:14.553Z,4
2017-03-25T04:54:55.124Z,4
2017-03-25T04:55:35.811Z,4
2017-03-25T04:56:16.410Z,8
2017-03-25T04:56:57.051Z,8
2017-03-25T04:57:37.687Z,4
2017-03-25T04:58:18.364Z,8
2017-03-25T04:58:59.009Z,8
2017-03-25T04:59:39.582Z,8
2017-03-25T05:00:20.225Z,12
2017-03-25T05:01:00.865Z,12
2017-03-25T05:01:41.509Z,12
2017-03-25T05:02:22.116Z,16
2017-03-25T05:03:02.746Z,16
2017-03-25T05:03:43.285Z,20
2017-03-25T05:04:23.878Z,24
2017-03-25T05:05:04.484Z,24
2017-03-25T05:05:45.127Z,28
2017-03-25T05:06:25.703Z,28
2017-03-25T05:07:06.301Z,32
2017-03-25T05:07:46.894Z,36
2017-03-25T05:08:27.538Z,40
2017-03-25T05:09:08.157Z,44
2017-03-25T05:09:48.814Z,44
2017-03-25T05:10:29.379Z,48
2017-03-25T05:11:10.046Z,56
2017-03-25T05:11:50.611Z,60
2017-03-25T05:12:31.218Z,64
2017-03-25T05:13:11.797Z,68
2017-03-25T05:13:52.462Z,76
2017-03-25T05:14:33.022Z,80
2017-03-25T05:15:13.604Z,92
2017-03-25T05:15:54.198Z,96
2017-03-25T05:16:34.867Z,104
2017-03-25T05:17:15.421Z,108
2017-03-25T05:17:56.004Z,116
2017-03-25T05:18:36.610Z,124
2017-03-25T05:19:17.268Z,132
2017-03-25T05:19:57.860Z,144
2017-03-25T05:20:38.535Z,152
2017-03-25T05:21:19.118Z,160
2017-03-25T05:21:59.778Z,172
2017-03-25T05:22:40.355Z,180
2017-03-25T05:23:21.088Z,192
2017-03-25T05:24:01.633Z,200
2017-03-25T05:24:42.293Z,212
2017-03-25T05:25:22.865Z,224
2017-03-25T05:26:03.449Z,236
2017-03-25T05:26:44.025Z,248
2017-03-25T05:27:24.693Z,260
2017-03-25T05:28:05.257Z,276
2017-03-25T05:28:45.822Z,288
2017-03-25T05:29:26.447Z,308
2017-03-25T05:30:07.027Z,324
2017-03-25T05:30:47.594Z,344
2017-03-25T05:31:28.200Z,364
2017-03-25T05:32:08.781Z,380
2017-03-25T05:32:49.405Z,396
2017-03-25T05:33:30.058Z,408
2017-03-25T05:34:10.707Z,424
2017-03-25T05:34:51.361Z,440
2017-03-25T05:35:32.019Z,460
2017-03-25T05:36:12.666Z,476
2017-03-25T05:36:53.318Z,492
2017-03-25T05:37:33.978Z,508
2017-03-25T05:38:14.626Z,524
2017-03-25T05:38:55.278Z,540
2017-03-25T05:39:35.932Z,560
2017-03-25T05:40:16.582Z,584
2017-03-25T05:40:57.236Z,608
2017-03-25T05:41:37.891Z,628
2017-03-25T05:42:18.477Z,648
2017-03-25T05:42:59.094Z,664
2017-03-25T05:43:39.740Z,680
2017-03-25T05:44:20.307Z,692
2017-03-25T05:45:00.948Z,704
2017-03-25T05:45:41.605Z,716
2017-03-25T05:46:22.196Z,728
2017-03-25T05:47:02.804Z,736
2017-03-25T05:47:43.572Z,752
2017-03-25T05:48:24.416Z,768
2017-03-25T05:49:05.069Z,780
2017-03-25T05:49:45.724Z,796
2017-03-25T05:50:26.369Z,816
2017-03-25T05:51:08.080Z,836
2017-03-25T05:51:48.704Z,856
2017-03-25T05:52:29.349Z,872
2017-03-25T05:53:10.005Z,896
2017-03-25T05:53:50.653Z,920
2017-03-25T05:54:31.317Z,944
2017-03-25T05:55:11.971Z,964
2017-03-25T05:55:52.630Z,988
2017-03-25T05:56:33.276Z,1012
2017-03-25T05:57:13.923Z,1032
2017-03-25T05:57:54.574Z,1060
2017-03-25T05:58:35.236Z,1088
2017-03-25T05:59:15.876Z,1112
2017-03-25T05:59:56.535Z,1140
2017-03-25T06:00:37.200Z,1168
2017-03-25T06:01:17.841Z,1196
2017-03-25T06:01:58.490Z,1228
2017-03-25T06:02:39.087Z,1256
2017-03-25T06:03:19.753Z,1284
2017-03-25T06:04:00.361Z,1316
2017-03-25T06:04:41.007Z,1344
2017-03-25T06:05:21.608Z,1372
2017-03-25T06:06:02.269Z,1404
2017-03-25T06:06:42.870Z,1432
2017-03-25T06:07:23.514Z,1456
2017-03-25T06:08:04.178Z,1484
2017-03-25T06:08:44.817Z,1512
2017-03-25T06:09:25.475Z,1544
2017-03-25T06:10:06.132Z,1572
2017-03-25T06:10:46.780Z,1604
2017-03-25T06:11:27.433Z,1640
2017-03-25T06:12:08.085Z,1680
2017-03-25T06:12:48.739Z,1724
2017-03-25T06:13:29.392Z,1756
2017-03-25T06:14:10.045Z,1796
2017-03-25T06:14:50.696Z,1832
2017-03-25T06:15:31.350Z,1860
2017-03-25T06:16:12.002Z,1888
2017-03-25T06:16:52.751Z,1920
2017-03-25T06:17:33.325Z,1944
2017-03-25T06:18:13.966Z,1968
2017-03-25T06:18:54.612Z,1992
2017-03-25T06:19:35.223Z,2024
2017-03-25T06:20:15.923Z,2056
2017-03-25T06:20:56.567Z,2088
2017-03-25T06:21:37.135Z,2124
2017-03-25T06:22:17.770Z,2156
2017-03-25T06:22:58.414Z,2188
2017-03-25T06:23:39.082Z,2220
2017-03-25T06:24:19.728Z,2248
2017-03-25T06:25:00.385Z,2280
2017-03-25T06:25:41.039Z,2308
2017-03-25T06:26:21.697Z,2336
2017-03-25T06:27:02.373Z,2364
2017-03-25T06:27:42.998Z,2392
2017-03-25T06:28:23.642Z,2424
2017-03-25T06:29:04.308Z,2452
2017-03-25T06:29:44.957Z,2480
2017-03-25T06:30:25.603Z,2504
2017-03-25T06:31:06.263Z,2524
2017-03-25T06:31:46.917Z,2548
2017-03-25T06:32:27.572Z,2572
2017-03-25T06:33:08.225Z,2580
2017-03-25T06:33:48.877Z,2612
2017-03-25T06:34:29.521Z,2632
2017-03-25T06:35:10.177Z,2652
2017-03-25T06:35:50.828Z,2672
2017-03-25T06:36:31.480Z,2688
2017-03-25T06:37:12.173Z,2716
2017-03-25T06:37:52.796Z,2740
2017-03-25T06:38:33.375Z,2760
2017-03-25T06:39:13.969Z,2788
2017-03-25T06:39:54.652Z,2812
2017-03-25T06:40:35.304Z,2836
2017-03-25T06:41:15.922Z,2860
2017-03-25T06:41:56.615Z,2880
2017-03-25T06:42:37.246Z,2904
2017-03-25T06:43:17.905Z,2924
2017-03-25T06:43:58.472Z,2948
2017-03-25T06:44:39.052Z,2964
2017-03-25T06:45:19.662Z,2972
2017-03-25T06:46:00.317Z,3000
2017-03-25T06:46:40.873Z,3016
2017-03-25T06:47:21.469Z,3028
2017-03-25T06:48:02.048Z,3044
2017-03-25T06:48:42.627Z,3056
2017-03-25T06:49:23.200Z,3068
2017-03-25T06:50:03.791Z,3080
2017-03-25T06:50:44.369Z,3088
2017-03-25T06:51:25.023Z,3096
2017-03-25T06:52:05.584Z,3108
2017-03-25T06:52:46.229Z,3128
2017-03-25T06:53:26.934Z,3228
2017-03-25T06:54:07.440Z,3276
2017-03-25T06:54:48.091Z,3232
2017-03-25T06:55:28.736Z,3256
2017-03-25T06:56:09.317Z,3276
2017-03-25T06:56:49.949Z,3300
2017-03-25T06:57:30.622Z,3324
2017-03-25T06:58:11.158Z,3352
2017-03-25T06:58:51.753Z,3376
2017-03-25T06:59:32.419Z,3408
2017-03-25T07:00:13.105Z,3416
2017-03-25T07:00:53.683Z,3444
2017-03-25T07:01:34.259Z,3420
2017-03-25T07:02:14.881Z,3440
2017-03-25T07:02:55.511Z,3440
2017-03-25T07:03:36.068Z,3500
2017-03-25T07:04:16.679Z,3436
2017-03-25T07:04:57.270Z,3432
2017-03-25T07:05:37.933Z,3424
2017-03-25T07:06:18.491Z,3420
2017-03-25T07:06:59.065Z,3408
2017-03-25T07:07:39.675Z,3412
2017-03-25T07:08:20.325Z,3408
2017-03-25T07:09:02.013Z,3412
2017-03-25T07:09:42.744Z,3420
2017-03-25T07:10:23.402Z,3424
2017-03-25T07:11:04.065Z,3428
2017-03-25T07:11:44.702Z,3420
2017-03-25T07:12:25.357Z,3432
2017-03-25T07:13:06.025Z,3436
2017-03-25T07:13:46.648Z,3424
2017-03-25T07:14:27.316Z,3424
2017-03-25T07:15:07.967Z,3436
2017-03-25T07:15:48.630Z,3440
2017-03-25T07:16:29.299Z,3432
2017-03-25T07:17:09.941Z,3424
2017-03-25T07:17:50.591Z,3428
2017-03-25T07:18:31.233Z,3428
2017-03-25T07:19:11.901Z,3528
2017-03-25T07:19:52.557Z,3428
2017-03-25T07:20:33.206Z,3452
2017-03-25T07:21:13.863Z,3444
2017-03-25T07:21:54.512Z,3444
2017-03-25T07:22:35.164Z,3448
2017-03-25T07:23:15.942Z,3448
2017-03-25T07:23:56.560Z,3464
2017-03-25T07:24:37.298Z,3476
2017-03-25T07:25:17.964Z,3452
2017-03-25T07:25:58.632Z,3448
2017-03-25T07:26:39.280Z,3508
2017-03-25T07:27:19.944Z,3540
2017-03-25T07:28:00.584Z,3564
2017-03-25T07:28:41.144Z,3584
2017-03-25T07:29:21.786Z,3592
2017-03-25T07:30:02.443Z,3588
2017-03-25T07:30:43.020Z,3592
2017-03-25T07:31:23.651Z,3604
2017-03-25T07:32:04.302Z,3612
2017-03-25T07:32:44.864Z,3620
2017-03-25T07:33:26.492Z,3632
2017-03-25T07:34:07.183Z,3644
2017-03-25T07:34:47.798Z,3652
2017-03-25T07:35:28.455Z,3620
2017-03-25T07:36:09.105Z,3668
2017-03-25T07:36:49.760Z,3676
2017-03-25T07:37:30.326Z,3676
2017-03-25T07:38:10.919Z,3672
2017-03-25T07:38:53.560Z,3624
2017-03-25T07:39:34.315Z,3668
2017-03-25T07:40:14.878Z,3684
2017-03-25T07:40:55.454Z,3736
2017-03-25T07:41:36.072Z,3760
2017-03-25T07:42:16.724Z,3708
2017-03-25T07:42:57.284Z,3752
2017-03-25T07:43:37.882Z,3792
2017-03-25T07:44:18.475Z,3804
2017-03-25T07:44:59.132Z,3792
2017-03-25T07:45:39.701Z,3816
2017-03-25T07:46:21.336Z,3836
2017-03-25T07:47:02.052Z,3828
2017-03-25T07:47:42.664Z,3844
2017-03-25T07:48:23.240Z,3832
2017-03-25T07:49:03.822Z,3868
2017-03-25T07:49:44.579Z,3888
2017-03-25T07:50:25.177Z,3900
2017-03-25T07:51:05.747Z,3920
2017-03-25T07:51:46.352Z,3928
2017-03-25T07:52:27.034Z,3868
2017-03-25T07:53:07.681Z,3996
2017-03-25T07:53:48.247Z,3948
2017-03-25T07:54:28.821Z,3952
2017-03-25T07:55:09.437Z,3956
2017-03-25T07:55:49.995Z,3968
2017-03-25T07:56:30.645Z,4044
2017-03-25T07:57:11.289Z,4000
2017-03-25T07:57:51.948Z,4052
2017-03-25T07:58:32.595Z,4108
2017-03-25T07:59:13.250Z,4064
2017-03-25T07:59:53.899Z,4072
2017-03-25T08:00:34.555Z,4076
2017-03-25T08:01:15.206Z,4108
2017-03-25T08:01:55.866Z,4060
2017-03-25T08:02:36.514Z,4096
2017-03-25T08:03:17.170Z,4112
2017-03-25T08:03:57.818Z,4112
2017-03-25T08:04:38.478Z,4128
2017-03-25T08:05:19.126Z,4136
2017-03-25T08:05:59.773Z,4148
2017-03-25T08:06:40.431Z,4144
2017-03-25T08:07:21.084Z,4136
2017-03-25T08:08:01.740Z,4148
2017-03-25T08:08:42.392Z,4188
2017-03-25T08:09:23.045Z,4196
2017-03-25T08:10:03.705Z,4212
2017-03-25T08:10:44.355Z,4208
2017-03-25T08:11:25.012Z,4196
2017-03-25T08:12:05.657Z,4232
2017-03-25T08:12:46.233Z,4248
2017-03-25T08:13:26.809Z,4248
2017-03-25T08:14:07.411Z,4256
2017-03-25T08:14:48.058Z,4244
2017-03-25T08:15:28.631Z,4256
2017-03-25T08:16:09.232Z,4252
2017-03-25T08:16:50.836Z,4236
2017-03-25T08:17:31.496Z,4208
2017-03-25T08:18:12.072Z,4200
2017-03-25T08:18:52.657Z,4192
2017-03-25T08:19:33.238Z,4140
2017-03-25T08:20:13.899Z,4172
2017-03-25T08:20:54.450Z,4260
2017-03-25T08:21:35.160Z,4296
2017-03-25T08:22:15.857Z,4300
2017-03-25T08:22:56.521Z,4300
2017-03-25T08:23:37.166Z,4324
2017-03-25T08:24:17.818Z,4328
2017-03-25T08:24:58.477Z,4320
2017-03-25T08:25:39.131Z,4352
2017-03-25T08:26:19.774Z,4332
2017-03-25T08:27:00.428Z,4368
2017-03-25T08:27:40.981Z,4356
2017-03-25T08:28:21.588Z,4412
2017-03-25T08:29:03.207Z,4408
2017-03-25T08:29:43.972Z,4420
2017-03-25T08:30:24.540Z,4452
2017-03-25T08:31:05.124Z,4464
2017-03-25T08:31:45.714Z,4504
2017-03-25T08:32:26.375Z,4480
2017-03-25T08:33:07.023Z,4528
2017-03-25T08:33:47.681Z,4520
2017-03-25T08:34:28.329Z,4552
2017-03-25T08:35:08.993Z,4532
2017-03-25T08:35:49.684Z,4544
2017-03-25T08:36:30.290Z,4584
2017-03-25T08:37:10.967Z,4604
2017-03-25T08:37:53.649Z,4620
2017-03-25T08:38:34.297Z,4640
2017-03-25T08:39:14.960Z,4664
2017-03-25T08:39:55.639Z,4668
2017-03-25T08:40:36.256Z,4684
2017-03-25T08:41:16.919Z,4684
2017-03-25T08:41:57.564Z,4684
2017-03-25T08:42:38.223Z,4704
2017-03-25T08:43:18.875Z,4720
2017-03-25T08:43:59.932Z,4724
2017-03-25T08:44:40.586Z,4724
2017-03-25T08:45:21.239Z,4736
2017-03-25T08:46:01.891Z,4728
2017-03-25T08:46:42.535Z,4704
2017-03-25T08:47:23.223Z,4704
2017-03-25T08:48:03.792Z,4716
2017-03-25T08:48:44.411Z,4708
2017-03-25T08:49:25.109Z,4684
2017-03-25T08:50:05.705Z,4656
2017-03-25T08:50:46.367Z,4664
2017-03-25T08:51:28.030Z,4744
2017-03-25T08:52:08.594Z,4644
2017-03-25T08:52:49.228Z,4720
2017-03-25T08:53:29.902Z,4736
2017-03-25T08:54:10.543Z,4648
2017-03-25T08:54:51.209Z,4672
2017-03-25T08:55:31.844Z,4612
2017-03-25T08:56:12.628Z,4744
2017-03-25T08:56:53.367Z,4684
2017-03-25T08:57:35.046Z,4672
2017-03-25T08:58:15.826Z,4664
2017-03-25T08:58:56.554Z,4704
2017-03-25T08:59:37.303Z,4696
2017-03-25T09:00:18.978Z,4684
2017-03-25T09:00:59.741Z,4684
2017-03-25T09:01:40.495Z,4736
2017-03-25T09:02:21.652Z,4756
2017-03-25T09:03:02.511Z,4740
2017-03-25T09:03:43.286Z,4716
2017-03-25T09:04:24.023Z,4700
2017-03-25T09:05:04.777Z,4728
2017-03-25T09:05:45.458Z,4748
2017-03-25T09:06:26.186Z,4808
2017-03-25T09:07:06.952Z,4816
2017-03-25T09:07:47.701Z,4808
2017-03-25T09:08:28.458Z,4816
2017-03-25T09:09:09.213Z,4788
2017-03-25T09:09:49.967Z,4872
2017-03-25T09:10:30.726Z,4808
2017-03-25T09:11:11.479Z,4796
2017-03-25T09:11:52.239Z,4816
2017-03-25T09:12:32.999Z,4812
2017-03-25T09:13:13.568Z,4824
2017-03-25T09:13:54.291Z,4856
2017-03-25T09:14:35.053Z,4868
2017-03-25T09:15:15.626Z,4892
2017-03-25T09:15:56.357Z,4904
2017-03-25T09:16:37.115Z,4896
2017-03-25T09:17:17.691Z,4896
2017-03-25T09:17:58.421Z,4908
2017-03-25T09:18:39.195Z,4908
2017-03-25T09:19:19.932Z,4904
2017-03-25T09:20:00.592Z,4908
2017-03-25T09:20:41.371Z,4916
2017-03-25T09:21:22.094Z,4920
2017-03-25T09:22:02.858Z,4768
2017-03-25T09:22:43.707Z,4696
2017-03-25T09:23:24.498Z,4660
2017-03-25T09:24:05.425Z,4640
2017-03-25T09:24:46.186Z,4540
2017-03-25T09:25:26.943Z,4544
2017-03-25T09:26:07.685Z,4756
2017-03-25T09:26:48.465Z,5040
2017-03-25T09:27:29.197Z,5076
2017-03-25T09:28:09.757Z,5080
2017-03-25T09:28:50.514Z,5024
2017-03-25T09:29:31.272Z,4992
2017-03-25T09:30:11.844Z,5048
2017-03-25T09:30:52.595Z,5068
2017-03-25T09:31:33.328Z,5080
2017-03-25T09:32:13.880Z,4980
2017-03-25T09:32:54.626Z,5036
2017-03-25T09:33:35.388Z,4988
2017-03-25T09:34:15.964Z,4996
2017-03-25T09:34:56.635Z,5040
2017-03-25T09:35:37.376Z,5124
2017-03-25T09:36:17.993Z,5176
2017-03-25T09:36:58.576Z,5176
2017-03-25T09:37:39.255Z,5244
2017-03-25T09:38:20.038Z,5292
2017-03-25T09:39:00.811Z,5364
2017-03-25T09:39:41.425Z,5532
2017-03-25T09:40:22.088Z,5432
2017-03-25T09:41:02.880Z,5424
2017-03-25T09:41:43.623Z,5504
2017-03-25T09:42:24.208Z,5544
2017-03-25T09:43:05.034Z,5568
2017-03-25T09:43:45.640Z,5544
2017-03-25T09:44:26.218Z,5604
2017-03-25T09:45:07.004Z,5612
2017-03-25T09:45:47.760Z,5600
2017-03-25T09:46:28.569Z,5644
2017-03-25T09:47:09.258Z,5672
2017-03-25T09:47:50.126Z,5672
2017-03-25T09:48:30.865Z,5664